Wetterdaten: Sonntag, 03.06.2012
Datum Zeit Temperatur Luftfeuchte Regen Wind Richtung Richtung Taupunkt Windchill Windben
03.06.2012 00:00 11,1 C 89 % 0,0 l/m 0,0 km/h (0 Bft) W-SW 247 9,4 C 10,8 C 0,0 km/h (0 Bft)
03.06.2012 00:05 10,8 C 90 % 0,0 l/m 0,0 km/h (0 Bft) SO 135 9,2 C 10,9 C 0,0 km/h (0 Bft)
03.06.2012 00:10 10,8 C 91 % 0,0 l/m 0,0 km/h (0 Bft) W 270 9,4 C 10,6 C 0,0 km/h (0 Bft)
03.06.2012 00:15 10,8 C 91 % 0,0 l/m 0,0 km/h (0 Bft) W-NW 292 9,4 C 10,6 C 0,0 km/h (0 Bft)
03.06.2012 00:20 10,6 C 91 % 0,0 l/m 0,0 km/h (0 Bft) N-NO 22 9,2 C 10,6 C 0,0 km/h (0 Bft)
03.06.2012 00:25 10,7 C 91 % 0,0 l/m 0,0 km/h (0 Bft) N-NW 337 9,3 C 10,5 C 0,0 km/h (0 Bft)
03.06.2012 00:30 10,4 C 91 % 0,0 l/m 0,0 km/h (0 Bft) S 180 9,0 C 10,4 C 0,0 km/h (0 Bft)
03.06.2012 00:35 10,4 C 91 % 0,0 l/m 0,0 km/h (0 Bft) N-NO 22 9,0 C 10,4 C 0,0 km/h (0 Bft)
03.06.2012 00:40 10,5 C 91 % 0,0 l/m 0,0 km/h (0 Bft) S-SO 157 9,1 C 10,3 C 0,0 km/h (0 Bft)
03.06.2012 00:45 10,5 C 91 % 0,0 l/m 0,0 km/h (0 Bft) SO 135 9,1 C 10,3 C 0,0 km/h (0 Bft)
03.06.2012 00:50 10,6 C 91 % 0,0 l/m 0,0 km/h (0 Bft) O-SO 112 9,2 C 10,5 C 0,0 km/h (0 Bft)
03.06.2012 00:55 10,7 C 91 % 0,0 l/m 0,0 km/h (0 Bft) S-SO 157 9,3 C 10,6 C 0,0 km/h (0 Bft)
03.06.2012 01:00 11,0 C 91 % 0,0 l/m 0,0 km/h (0 Bft) N-NW 337 9,6 C 10,8 C 0,0 km/h (0 Bft)
03.06.2012 01:05 11,0 C 91 % 0,0 l/m 0,0 km/h (0 Bft) N-NO 22 9,6 C 10,8 C 0,0 km/h (0 Bft)
03.06.2012 01:10 11,0 C 91 % 0,0 l/m 0,0 km/h (0 Bft) S-SO 157 9,6 C 10,9 C 0,0 km/h (0 Bft)
03.06.2012 01:15 11,0 C 91 % 0,0 l/m 0,2 km/h (0 Bft) S-SW 202 9,6 C 10,9 C 0,0 km/h (0 Bft)
03.06.2012 01:20 11,0 C 91 % 0,0 l/m 0,0 km/h (0 Bft) N-NO 22 9,6 C 10,9 C 0,0 km/h (0 Bft)
03.06.2012 01:25 11,1 C 91 % 0,0 l/m 0,0 km/h (0 Bft) W-NW 292 9,7 C 10,9 C 0,0 km/h (0 Bft)
03.06.2012 01:30 11,2 C 91 % 0,0 l/m 0,0 km/h (0 Bft) W-SW 247 9,8 C 10,9 C 0,0 km/h (0 Bft)
03.06.2012 01:35 11,1 C 91 % 0,0 l/m 0,0 km/h (0 Bft) N 360 9,7 C 11,0 C 0,0 km/h (0 Bft)
03.06.2012 01:40 11,3 C 91 % 0,0 l/m 0,0 km/h (0 Bft) N 360 9,9 C 11,0 C 0,0 km/h (0 Bft)
03.06.2012 01:45 11,4 C 91 % 0,0 l/m 0,0 km/h (0 Bft) W-NW 292 10,0 C 11,0 C 0,0 km/h (0 Bft)
03.06.2012 01:50 11,3 C 91 % 0,0 l/m 0,0 km/h (0 Bft) N-NW 337 9,9 C 11,0 C 0,0 km/h (0 Bft)
03.06.2012 01:55 11,3 C 91 % 0,0 l/m 0,0 km/h (0 Bft) S 180 9,9 C 11,0 C 0,0 km/h (0 Bft)
03.06.2012 02:00 11,2 C 91 % 0,0 l/m 0,0 km/h (0 Bft) N 360 9,8 C 11,0 C 0,0 km/h (0 Bft)
03.06.2012 02:05 11,2 C 91 % 0,0 l/m 0,0 km/h (0 Bft) N-NW 337 9,8 C 11,0 C 0,0 km/h (0 Bft)
03.06.2012 02:10 11,2 C 91 % 0,0 l/m 0,0 km/h (0 Bft) N-NO 22 9,8 C 10,9 C 0,0 km/h (0 Bft)
03.06.2012 02:15 11,4 C 91 % 0,0 l/m 0,2 km/h (0 Bft) NO 45 10,0 C 10,8 C 0,0 km/h (0 Bft)
03.06.2012 02:20 11,4 C 90 % 0,0 l/m 0,2 km/h (0 Bft) O-SO 112 9,8 C 10,9 C 2,3 km/h (1 Bft)
03.06.2012 02:25 11,4 C 90 % 0,0 l/m 0,0 km/h (0 Bft) W-NW 292 9,8 C 10,9 C 0,0 km/h (0 Bft)
03.06.2012 02:30 11,7 C 90 % 0,0 l/m 0,2 km/h (0 Bft) O-NO 67 10,1 C 11,1 C 2,4 km/h (1 Bft)
03.06.2012 02:36 11,7 C 90 % 0,0 l/m 0,2 km/h (0 Bft) S-SW 202 10,1 C 11,2 C 0,0 km/h (0 Bft)
03.06.2012 02:40 11,5 C 90 % 0,0 l/m 0,0 km/h (0 Bft) NO 45 9,9 C 11,2 C 0,0 km/h (0 Bft)
03.06.2012 02:47 11,6 C 89 % 0,0 l/m 0,0 km/h (0 Bft) N-NW 337 9,8 C 11,2 C 0,0 km/h (0 Bft)
03.06.2012 02:50 11,6 C 89 % 0,0 l/m 0,0 km/h (0 Bft) N-NW 337 9,8 C 11,2 C 0,0 km/h (0 Bft)
03.06.2012 02:55 11,5 C 89 % 0,0 l/m 0,0 km/h (0 Bft) N-NO 22 9,8 C 11,2 C 0,0 km/h (0 Bft)
03.06.2012 03:00 11,4 C 89 % 0,0 l/m 0,0 km/h (0 Bft) O-SO 112 9,7 C 11,1 C 0,0 km/h (0 Bft)
03.06.2012 03:05 11,4 C 89 % 0,0 l/m 0,2 km/h (0 Bft) N-NO 22 9,7 C 11,0 C 2,6 km/h (1 Bft)
03.06.2012 03:10 11,4 C 89 % 0,0 l/m 0,3 km/h (0 Bft) S-SO 157 9,7 C 11,0 C 0,0 km/h (0 Bft)
03.06.2012 03:15 11,2 C 89 % 0,0 l/m 0,2 km/h (0 Bft) SO 135 9,5 C 10,9 C 0,0 km/h (0 Bft)
03.06.2012 03:20 11,0 C 89 % 0,0 l/m 0,0 km/h (0 Bft) S-SO 157 9,3 C 10,8 C 0,0 km/h (0 Bft)
03.06.2012 03:25 11,1 C 89 % 0,0 l/m 0,0 km/h (0 Bft) N 360 9,4 C 10,7 C 0,0 km/h (0 Bft)
03.06.2012 03:30 11,5 C 90 % 0,0 l/m 0,6 km/h (0 Bft) NO 45 9,9 C 10,8 C 3,2 km/h (1 Bft)
03.06.2012 03:35 11,5 C 90 % 0,0 l/m 1,1 km/h (1 Bft) O-NO 67 9,9 C 11,0 C 1,9 km/h (1 Bft)
03.06.2012 03:40 11,3 C 90 % 0,0 l/m 0,5 km/h (0 Bft) N 360 9,7 C 11,1 C 0,0 km/h (0 Bft)
03.06.2012 03:45 11,3 C 90 % 0,0 l/m 0,2 km/h (0 Bft) S-SW 202 9,7 C 11,0 C 0,0 km/h (0 Bft)
03.06.2012 03:50 10,8 C 90 % 0,0 l/m 0,0 km/h (0 Bft) N-NO 22 9,2 C 10,8 C 0,0 km/h (0 Bft)
03.06.2012 03:55 10,6 C 90 % 0,0 l/m 0,0 km/h (0 Bft) S 180 9,0 C 10,6 C 0,0 km/h (0 Bft)
03.06.2012 04:00 10,4 C 90 % 0,0 l/m 0,0 km/h (0 Bft) SO 135 8,8 C 10,4 C 0,0 km/h (0 Bft)
03.06.2012 04:05 10,4 C 90 % 0,0 l/m 0,2 km/h (0 Bft) O-SO 112 8,8 C 10,3 C 0,0 km/h (0 Bft)
03.06.2012 04:10 10,1 C 90 % 0,0 l/m 0,2 km/h (0 Bft) S 180 8,5 C 10,1 C 0,0 km/h (0 Bft)
03.06.2012 04:15 10,0 C 90 % 0,0 l/m 0,0 km/h (0 Bft) W-NW 292 8,4 C 9,9 C 0,0 km/h (0 Bft)
03.06.2012 04:20 9,9 C 90 % 0,0 l/m 0,0 km/h (0 Bft) S-SO 157 8,3 C 9,8 C 0,0 km/h (0 Bft)
03.06.2012 04:25 9,8 C 90 % 0,0 l/m 0,0 km/h (0 Bft) W-NW 292 8,2 C 9,7 C 0,0 km/h (0 Bft)
03.06.2012 04:30 9,6 C 90 % 0,0 l/m 0,0 km/h (0 Bft) W-NW 292 8,0 C 9,6 C 0,0 km/h (0 Bft)
03.06.2012 04:35 9,7 C 90 % 0,0 l/m 0,0 km/h (0 Bft) N-NW 337 8,1 C 9,5 C 0,0 km/h (0 Bft)
03.06.2012 04:40 9,7 C 91 % 0,0 l/m 0,2 km/h (0 Bft) NW 315 8,3 C 9,5 C 1,6 km/h (1 Bft)
03.06.2012 04:45 9,5 C 91 % 0,0 l/m 0,2 km/h (0 Bft) N 360 8,1 C 9,5 C 0,0 km/h (0 Bft)
03.06.2012 04:50 9,9 C 91 % 0,0 l/m 0,5 km/h (0 Bft) N 360 8,5 C 9,5 C 0,0 km/h (0 Bft)
03.06.2012 04:55 9,8 C 92 % 0,0 l/m 0,5 km/h (0 Bft) NO 45 8,6 C 9,5 C 0,0 km/h (0 Bft)
03.06.2012 05:00 9,8 C 92 % 0,0 l/m 0,2 km/h (0 Bft) N 360 8,6 C 9,5 C 0,0 km/h (0 Bft)
03.06.2012 05:05 9,7 C 92 % 0,0 l/m 0,0 km/h (0 Bft) SO 135 8,5 C 9,5 C 0,0 km/h (0 Bft)
03.06.2012 05:10 9,7 C 92 % 0,0 l/m 0,0 km/h (0 Bft) N-NO 22 8,5 C 9,4 C 0,0 km/h (0 Bft)
03.06.2012 05:15 9,9 C 92 % 0,0 l/m 0,2 km/h (0 Bft) N 360 8,7 C 9,4 C 0,0 km/h (0 Bft)
03.06.2012 05:20 9,7 C 92 % 0,0 l/m 0,3 km/h (0 Bft) NW 315 8,5 C 9,7 C 0,0 km/h (0 Bft)
03.06.2012 05:25 9,7 C 92 % 0,0 l/m 0,3 km/h (0 Bft) N 360 8,5 C 9,6 C 0,0 km/h (0 Bft)
03.06.2012 05:30 10,0 C 92 % 0,0 l/m 0,0 km/h (0 Bft) O-SO 112 8,8 C 9,7 C 0,0 km/h (0 Bft)
03.06.2012 05:35 10,0 C 92 % 0,0 l/m 0,0 km/h (0 Bft) O 90 8,8 C 9,7 C 0,0 km/h (0 Bft)
03.06.2012 05:40 10,0 C 92 % 0,0 l/m 0,0 km/h (0 Bft) W-NW 292 8,8 C 9,9 C 0,0 km/h (0 Bft)
03.06.2012 05:45 10,0 C 92 % 0,0 l/m 0,0 km/h (0 Bft) N 360 8,8 C 10,0 C 2,1 km/h (1 Bft)
03.06.2012 05:50 10,1 C 92 % 0,0 l/m 0,0 km/h (0 Bft) SW 225 8,9 C 10,1 C 0,0 km/h (0 Bft)
03.06.2012 05:55 10,2 C 92 % 0,0 l/m 0,0 km/h (0 Bft) S 180 9,0 C 10,3 C 0,0 km/h (0 Bft)
03.06.2012 06:00 10,5 C 92 % 0,0 l/m 0,0 km/h (0 Bft) N-NW 337 9,3 C 10,5 C 0,0 km/h (0 Bft)
03.06.2012 06:05 10,6 C 92 % 0,0 l/m 0,0 km/h (0 Bft) W-NW 292 9,4 C 10,7 C 0,0 km/h (0 Bft)
03.06.2012 06:10 10,8 C 92 % 0,0 l/m 0,0 km/h (0 Bft) N-NW 337 9,6 C 11,0 C 0,0 km/h (0 Bft)
03.06.2012 06:15 11,0 C 92 % 0,0 l/m 0,0 km/h (0 Bft) N 360 9,8 C 11,2 C 0,0 km/h (0 Bft)
03.06.2012 06:20 11,4 C 92 % 0,0 l/m 0,2 km/h (0 Bft) SO 135 10,1 C 11,3 C 0,0 km/h (0 Bft)
03.06.2012 06:25 11,7 C 92 % 0,0 l/m 0,2 km/h (0 Bft) O-SO 112 10,4 C 11,5 C 0,0 km/h (0 Bft)
03.06.2012 06:30 12,1 C 92 % 0,0 l/m 0,0 km/h (0 Bft) N-NO 22 10,8 C 11,9 C 0,0 km/h (0 Bft)
03.06.2012 06:35 12,5 C 91 % 0,0 l/m 0,0 km/h (0 Bft) O-SO 112 11,1 C 12,3 C 0,0 km/h (0 Bft)
03.06.2012 06:40 12,7 C 90 % 0,0 l/m 0,0 km/h (0 Bft) N-NW 337 11,1 C 12,8 C 0,0 km/h (0 Bft)
03.06.2012 06:45 12,9 C 89 % 0,0 l/m 0,0 km/h (0 Bft) N 360 11,1 C 13,1 C 0,0 km/h (0 Bft)
03.06.2012 06:50 13,1 C 88 % 0,0 l/m 0,3 km/h (0 Bft) S 180 11,2 C 13,2 C 1,9 km/h (1 Bft)
03.06.2012 06:55 13,1 C 88 % 0,0 l/m 0,3 km/h (0 Bft) N 360 11,2 C 13,3 C 1,9 km/h (1 Bft)
03.06.2012 07:00 13,3 C 87 % 0,0 l/m 0,6 km/h (0 Bft) W-SW 247 11,2 C 13,5 C 0,0 km/h (0 Bft)
03.06.2012 07:05 13,5 C 87 % 0,0 l/m 0,5 km/h (0 Bft) N-NW 337 11,4 C 13,7 C 0,0 km/h (0 Bft)
03.06.2012 07:10 13,8 C 86 % 0,0 l/m 0,0 km/h (0 Bft) NW 315 11,5 C 14,1 C 0,0 km/h (0 Bft)
03.06.2012 07:15 13,9 C 86 % 0,0 l/m 0,0 km/h (0 Bft) N 360 11,6 C 14,4 C 0,0 km/h (0 Bft)
03.06.2012 07:20 14,1 C 85 % 0,0 l/m 0,0 km/h (0 Bft) N 360 11,6 C 14,6 C 0,0 km/h (0 Bft)
03.06.2012 07:25 14,5 C 85 % 0,0 l/m 0,0 km/h (0 Bft) NO 45 12,0 C 14,8 C 0,0 km/h (0 Bft)
03.06.2012 07:30 15,0 C 84 % 0,0 l/m 0,0 km/h (0 Bft) S-SO 157 12,3 C 15,3 C 0,0 km/h (0 Bft)
03.06.2012 07:35 15,1 C 83 % 0,0 l/m 0,0 km/h (0 Bft) N-NW 337 12,2 C 15,5 C 0,0 km/h (0 Bft)
03.06.2012 07:40 15,3 C 82 % 0,0 l/m 0,2 km/h (0 Bft) N 360 12,2 C 15,8 C 1,9 km/h (1 Bft)
03.06.2012 07:45 15,2 C 81 % 0,0 l/m 0,2 km/h (0 Bft) S 180 12,0 C 16,0 C 0,0 km/h (0 Bft)
03.06.2012 07:50 15,4 C 81 % 0,0 l/m 0,6 km/h (0 Bft) S 180 12,2 C 16,0 C 0,0 km/h (0 Bft)
03.06.2012 07:55 15,9 C 81 % 0,0 l/m 0,3 km/h (0 Bft) N-NO 22 12,6 C 16,4 C 0,0 km/h (0 Bft)
03.06.2012 08:00 15,7 C 81 % 0,0 l/m 0,6 km/h (0 Bft) S 180 12,4 C 16,6 C 0,0 km/h (0 Bft)
03.06.2012 08:05 16,0 C 80 % 0,0 l/m 0,6 km/h (0 Bft) S 180 12,5 C 16,6 C 0,0 km/h (0 Bft)
03.06.2012 08:10 16,4 C 80 % 0,0 l/m 0,0 km/h (0 Bft) SO 135 12,9 C 17,0 C 0,0 km/h (0 Bft)
03.06.2012 08:15 16,6 C 80 % 0,0 l/m 0,0 km/h (0 Bft) SO 135 13,2 C 17,2 C 0,0 km/h (0 Bft)
03.06.2012 08:20 16,7 C 79 % 0,0 l/m 0,0 km/h (0 Bft) S 180 13,0 C 17,6 C 0,0 km/h (0 Bft)
03.06.2012 08:25 16,6 C 79 % 0,0 l/m 0,0 km/h (0 Bft) W-SW 247 12,9 C 17,6 C 0,0 km/h (0 Bft)
03.06.2012 08:30 16,5 C 80 % 0,0 l/m 0,0 km/h (0 Bft) S 180 13,0 C 17,5 C 0,0 km/h (0 Bft)
03.06.2012 08:35 16,6 C 80 % 0,0 l/m 0,2 km/h (0 Bft) O 90 13,1 C 17,4 C 0,0 km/h (0 Bft)
03.06.2012 08:40 17,2 C 80 % 0,0 l/m 0,2 km/h (0 Bft) N-NO 22 13,7 C 17,6 C 0,0 km/h (0 Bft)
03.06.2012 08:45 17,7 C 78 % 0,0 l/m 0,0 km/h (0 Bft) W-SW 247 14,6 C 18,8 C 0,0 km/h (0 Bft)
03.06.2012 08:50 18,1 C 78 % 0,0 l/m 0,0 km/h (0 Bft) O-SO 112 14,7 C 19,8 C 0,0 km/h (0 Bft)
03.06.2012 08:55 18,2 C 78 % 0,0 l/m 0,2 km/h (0 Bft) SO 135 14,8 C 20,2 C 2,7 km/h (1 Bft)
03.06.2012 09:00 18,3 C 77 % 0,0 l/m 0,5 km/h (0 Bft) O-SO 112 14,2 C 20,0 C 0,0 km/h (0 Bft)
03.06.2012 09:05 18,4 C 76 % 0,0 l/m 0,5 km/h (0 Bft) NO 45 14,1 C 20,1 C 0,0 km/h (0 Bft)
03.06.2012 09:10 17,9 C 71 % 0,0 l/m 0,2 km/h (0 Bft) N 360 12,6 C 19,8 C 0,0 km/h (0 Bft)
03.06.2012 09:15 17,6 C 72 % 0,0 l/m 0,2 km/h (0 Bft) N 360 12,5 C 19,4 C 0,0 km/h (0 Bft)
03.06.2012 09:20 17,5 C 74 % 0,0 l/m 0,8 km/h (0 Bft) NW 315 12,8 C 18,8 C 3,5 km/h (1 Bft)
03.06.2012 09:25 17,3 C 76 % 0,0 l/m 1,1 km/h (1 Bft) N-NO 22 13,0 C 18,3 C 0,0 km/h (0 Bft)
03.06.2012 09:30 17,5 C 76 % 0,0 l/m 0,8 km/h (0 Bft) NO 45 13,2 C 18,1 C 3,7 km/h (1 Bft)
03.06.2012 09:35 17,7 C 74 % 0,0 l/m 0,5 km/h (0 Bft) N-NW 337 13,0 C 18,3 C 1,9 km/h (1 Bft)
03.06.2012 09:40 18,0 C 75 % 0,0 l/m 0,5 km/h (0 Bft) N 360 13,5 C 18,7 C 1,6 km/h (1 Bft)
03.06.2012 09:45 18,1 C 75 % 0,0 l/m 0,5 km/h (0 Bft) O-NO 67 13,6 C 19,0 C 0,0 km/h (0 Bft)
03.06.2012 09:50 18,0 C 74 % 0,0 l/m 0,5 km/h (0 Bft) N-NW 337 13,3 C 19,2 C 0,0 km/h (0 Bft)
03.06.2012 09:55 18,1 C 75 % 0,0 l/m 1,1 km/h (1 Bft) O-SO 112 13,6 C 19,0 C 3,4 km/h (1 Bft)
03.06.2012 10:00 17,7 C 74 % 0,0 l/m 3,7 km/h (1 Bft) O-SO 112 13,0 C 18,3 C 11,7 km/h (2 Bft)
03.06.2012 10:05 17,0 C 76 % 0,0 l/m 6,4 km/h (2 Bft) S-SO 157 12,7 C 17,4 C 16,7 km/h (3 Bft)
03.06.2012 10:10 16,6 C 76 % 0,0 l/m 14,3 km/h (3 Bft) SO 135 12,3 C 12,7 C 32,0 km/h (5 Bft)
03.06.2012 10:15 16,6 C 78 % 0,0 l/m 15,1 km/h (3 Bft) SO 135 12,7 C 11,9 C 15,1 km/h (3 Bft)
03.06.2012 10:20 16,2 C 80 % 0,0 l/m 12,4 km/h (3 Bft) O-SO 112 12,7 C 12,5 C 10,0 km/h (2 Bft)
03.06.2012 10:25 16,2 C 81 % 0,0 l/m 10,9 km/h (2 Bft) SO 135 12,9 C 13,1 C 7,7 km/h (2 Bft)
03.06.2012 10:30 16,3 C 81 % 0,0 l/m 8,7 km/h (2 Bft) N-NW 337 13,0 C 14,5 C 7,2 km/h (2 Bft)
03.06.2012 10:35 16,3 C 81 % 0,0 l/m 7,9 km/h (2 Bft) O-SO 112 13,0 C 15,1 C 11,1 km/h (2 Bft)
03.06.2012 10:40 16,5 C 82 % 0,0 l/m 8,0 km/h (2 Bft) SO 135 13,4 C 15,2 C 12,1 km/h (2 Bft)
03.06.2012 10:45 16,7 C 81 % 0,0 l/m 8,9 km/h (2 Bft) S 180 13,4 C 14,8 C 11,7 km/h (2 Bft)
03.06.2012 10:50 16,9 C 80 % 0,0 l/m 8,7 km/h (2 Bft) SO 135 13,4 C 15,3 C 13,2 km/h (3 Bft)
03.06.2012 10:55 16,9 C 81 % 0,0 l/m 8,7 km/h (2 Bft) SO 135 13,6 C 15,5 C 11,3 km/h (2 Bft)
03.06.2012 11:00 17,0 C 80 % 0,0 l/m 6,9 km/h (2 Bft) O 90 13,5 C 16,3 C 8,7 km/h (2 Bft)
03.06.2012 11:05 17,4 C 80 % 0,0 l/m 6,1 km/h (2 Bft) O-SO 112 13,9 C 16,9 C 10,5 km/h (2 Bft)
03.06.2012 11:10 17,8 C 79 % 0,0 l/m 6,8 km/h (2 Bft) O-SO 112 14,1 C 17,3 C 11,4 km/h (2 Bft)
03.06.2012 11:15 17,7 C 79 % 0,0 l/m 6,3 km/h (2 Bft) W-NW 292 14,0 C 17,7 C 6,1 km/h (2 Bft)
03.06.2012 11:20 17,4 C 79 % 0,0 l/m 6,1 km/h (2 Bft) O-NO 67 13,7 C 17,7 C 10,5 km/h (2 Bft)
03.06.2012 11:25 17,2 C 80 % 0,0 l/m 6,3 km/h (2 Bft) S-SW 202 13,7 C 17,5 C 7,2 km/h (2 Bft)
03.06.2012 11:30 17,2 C 81 % 0,0 l/m 5,5 km/h (1 Bft) SO 135 13,9 C 17,4 C 4,5 km/h (1 Bft)
03.06.2012 11:35 17,4 C 81 % 0,0 l/m 4,7 km/h (1 Bft) O-SO 112 14,1 C 17,5 C 6,3 km/h (2 Bft)
03.06.2012 11:40 17,3 C 80 % 0,0 l/m 5,8 km/h (2 Bft) S 180 13,8 C 17,6 C 6,6 km/h (2 Bft)
03.06.2012 11:45 17,2 C 81 % 0,0 l/m 6,4 km/h (2 Bft) SO 135 13,9 C 17,5 C 10,1 km/h (2 Bft)
03.06.2012 11:50 17,5 C 81 % 0,0 l/m 6,3 km/h (2 Bft) SO 135 14,2 C 17,5 C 5,3 km/h (1 Bft)
03.06.2012 11:55 17,8 C 81 % 0,0 l/m 6,3 km/h (2 Bft) SO 135 14,5 C 17,8 C 6,1 km/h (2 Bft)
03.06.2012 12:00 18,4 C 80 % 0,0 l/m 5,0 km/h (1 Bft) S 180 14,9 C 18,3 C 8,7 km/h (2 Bft)
03.06.2012 12:05 18,6 C 80 % 0,0 l/m 4,5 km/h (1 Bft) O 90 15,1 C 18,9 C 3,4 km/h (1 Bft)
03.06.2012 12:10 20,3 C 78 % 0,0 l/m 3,9 km/h (1 Bft) SO 135 16,6 C 19,8 C 2,9 km/h (1 Bft)
03.06.2012 12:15 21,4 C 66 % 0,0 l/m 3,9 km/h (1 Bft) SW 225 15,1 C 21,6 C 4,0 km/h (1 Bft)
03.06.2012 12:20 22,1 C 70 % 0,0 l/m 3,4 km/h (1 Bft) SO 135 16,4 C 23,2 C 5,0 km/h (1 Bft)
03.06.2012 12:26 23,0 C 67 % 0,0 l/m 3,2 km/h (1 Bft) SO 135 16,6 C 24,1 C 4,8 km/h (1 Bft)
03.06.2012 12:30 23,5 C 65 % 0,0 l/m 4,5 km/h (1 Bft) O 90 16,6 C 25,0 C 4,3 km/h (1 Bft)
03.06.2012 12:35 24,1 C 62 % 0,0 l/m 4,7 km/h (1 Bft) S 180 16,4 C 25,0 C 4,5 km/h (1 Bft)
03.06.2012 12:40 24,8 C 59 % 0,0 l/m 3,4 km/h (1 Bft) O-SO 112 16,2 C 26,5 C 3,2 km/h (1 Bft)
03.06.2012 12:45 24,0 C 57 % 0,0 l/m 2,9 km/h (1 Bft) NO 45 14,9 C 26,6 C 2,1 km/h (1 Bft)
03.06.2012 12:50 24,4 C 57 % 0,0 l/m 2,7 km/h (1 Bft) S-SW 202 15,3 C 26,8 C 3,1 km/h (1 Bft)
03.06.2012 12:55 24,6 C 56 % 0,0 l/m 2,6 km/h (1 Bft) S 180 15,2 C 27,3 C 4,2 km/h (1 Bft)
03.06.2012 13:00 24,6 C 52 % 0,0 l/m 3,5 km/h (1 Bft) S-SO 157 14,1 C 27,3 C 5,3 km/h (1 Bft)
03.06.2012 13:05 24,6 C 55 % 0,0 l/m 3,9 km/h (1 Bft) S 180 14,9 C 27,3 C 4,3 km/h (1 Bft)
03.06.2012 13:10 24,4 C 55 % 0,0 l/m 4,8 km/h (1 Bft) S-SW 202 14,8 C 26,4 C 6,6 km/h (2 Bft)
03.06.2012 13:15 24,7 C 55 % 0,0 l/m 5,0 km/h (1 Bft) SO 135 15,0 C 26,6 C 6,8 km/h (2 Bft)
03.06.2012 13:20 25,1 C 50 % 0,0 l/m 4,0 km/h (1 Bft) S-SW 202 13,9 C 27,0 C 4,0 km/h (1 Bft)
03.06.2012 13:25 25,1 C 50 % 0,0 l/m 3,1 km/h (1 Bft) S-SO 157 13,9 C 27,7 C 2,1 km/h (1 Bft)
03.06.2012 13:30 24,9 C 50 % 0,0 l/m 3,4 km/h (1 Bft) SO 135 13,7 C 27,3 C 9,7 km/h (2 Bft)
03.06.2012 13:35 24,6 C 50 % 0,0 l/m 5,6 km/h (1 Bft) SO 135 13,5 C 26,7 C 6,9 km/h (2 Bft)
03.06.2012 13:40 24,9 C 52 % 0,0 l/m 6,9 km/h (2 Bft) SO 135 14,4 C 25,9 C 7,6 km/h (2 Bft)
03.06.2012 13:45 25,2 C 50 % 0,0 l/m 6,6 km/h (2 Bft) SO 135 14,0 C 26,0 C 10,9 km/h (2 Bft)
03.06.2012 13:50 24,5 C 52 % 0,0 l/m 6,6 km/h (2 Bft) S 180 14,0 C 25,5 C 9,3 km/h (2 Bft)
03.06.2012 13:55 24,3 C 50 % 0,0 l/m 6,4 km/h (2 Bft) W-SW 247 13,2 C 25,5 C 5,8 km/h (2 Bft)
03.06.2012 14:00 24,7 C 50 % 0,0 l/m 5,5 km/h (1 Bft) SW 225 13,6 C 26,0 C 7,6 km/h (2 Bft)
03.06.2012 14:05 25,0 C 49 % 0,0 l/m 5,0 km/h (1 Bft) SO 135 13,5 C 26,7 C 6,4 km/h (2 Bft)
03.06.2012 14:10 25,0 C 52 % 0,0 l/m 5,3 km/h (1 Bft) NO 45 14,4 C 26,7 C 6,4 km/h (2 Bft)
03.06.2012 14:15 25,2 C 51 % 0,0 l/m 4,8 km/h (1 Bft) S 180 14,3 C 26,7 C 3,7 km/h (1 Bft)
03.06.2012 14:20 25,5 C 51 % 0,0 l/m 4,2 km/h (1 Bft) S 180 14,6 C 27,0 C 4,3 km/h (1 Bft)
03.06.2012 14:25 26,2 C 49 % 0,0 l/m 4,5 km/h (1 Bft) S 180 14,6 C 27,5 C 6,8 km/h (2 Bft)
03.06.2012 14:30 26,5 C 49 % 0,0 l/m 5,3 km/h (1 Bft) S 180 14,9 C 27,6 C 9,5 km/h (2 Bft)
03.06.2012 14:35 25,9 C 48 % 0,0 l/m 6,0 km/h (2 Bft) S 180 14,0 C 27,5 C 5,0 km/h (1 Bft)
03.06.2012 14:40 25,0 C 50 % 0,0 l/m 6,6 km/h (2 Bft) S 180 13,8 C 27,2 C 7,6 km/h (2 Bft)
03.06.2012 14:45 25,1 C 49 % 0,0 l/m 6,6 km/h (2 Bft) S 180 13,6 C 26,6 C 5,3 km/h (1 Bft)
03.06.2012 14:50 25,1 C 51 % 0,0 l/m 6,4 km/h (2 Bft) S-SO 157 14,2 C 26,5 C 12,1 km/h (2 Bft)
03.06.2012 14:55 24,3 C 52 % 0,0 l/m 6,8 km/h (2 Bft) S 180 13,8 C 25,8 C 6,1 km/h (2 Bft)
03.06.2012 15:00 25,3 C 53 % 0,0 l/m 6,9 km/h (2 Bft) O-NO 67 15,0 C 25,8 C 5,3 km/h (1 Bft)
03.06.2012 15:05 25,5 C 53 % 0,0 l/m 6,4 km/h (2 Bft) SO 135 15,2 C 26,4 C 8,5 km/h (2 Bft)
03.06.2012 15:10 25,2 C 51 % 0,0 l/m 8,0 km/h (2 Bft) O-SO 112 14,3 C 26,1 C 9,3 km/h (2 Bft)
03.06.2012 15:15 25,1 C 52 % 0,0 l/m 9,3 km/h (2 Bft) O-SO 112 14,5 C 25,5 C 11,6 km/h (2 Bft)
03.06.2012 15:20 25,2 C 49 % 0,0 l/m 9,5 km/h (2 Bft) SO 135 13,7 C 25,7 C 14,3 km/h (3 Bft)
03.06.2012 15:25 24,8 C 52 % 0,0 l/m 8,7 km/h (2 Bft) SO 135 14,3 C 25,4 C 12,2 km/h (2 Bft)
03.06.2012 15:30 23,3 C 56 % 0,0 l/m 8,2 km/h (2 Bft) S-SO 157 14,0 C 24,6 C 8,2 km/h (2 Bft)
03.06.2012 15:35 22,9 C 58 % 0,0 l/m 7,6 km/h (2 Bft) S 180 14,2 C 23,9 C 6,3 km/h (2 Bft)
03.06.2012 15:40 23,1 C 57 % 0,0 l/m 5,8 km/h (2 Bft) SO 135 14,1 C 24,2 C 7,4 km/h (2 Bft)
03.06.2012 15:45 23,4 C 57 % 0,0 l/m 4,7 km/h (1 Bft) S-SO 157 14,4 C 24,2 C 5,5 km/h (1 Bft)
03.06.2012 15:50 23,0 C 57 % 0,0 l/m 5,0 km/h (1 Bft) S-SW 202 14,0 C 24,2 C 6,1 km/h (2 Bft)
03.06.2012 15:55 22,7 C 59 % 0,0 l/m 5,0 km/h (1 Bft) SO 135 14,3 C 23,8 C 6,6 km/h (2 Bft)
03.06.2012 16:00 22,5 C 59 % 0,0 l/m 5,0 km/h (1 Bft) O-SO 112 14,1 C 23,4 C 12,6 km/h (3 Bft)
03.06.2012 16:05 22,5 C 59 % 0,0 l/m 6,1 km/h (2 Bft) O-SO 112 14,1 C 23,4 C 6,0 km/h (2 Bft)
03.06.2012 16:10 22,6 C 58 % 0,0 l/m 7,6 km/h (2 Bft) S 180 13,9 C 23,2 C 7,7 km/h (2 Bft)
03.06.2012 16:15 22,7 C 59 % 0,0 l/m 6,9 km/h (2 Bft) S 180 14,3 C 23,5 C 8,4 km/h (2 Bft)
03.06.2012 16:20 23,0 C 58 % 0,0 l/m 6,8 km/h (2 Bft) O-SO 112 14,3 C 23,9 C 13,0 km/h (3 Bft)
03.06.2012 16:25 22,6 C 59 % 0,0 l/m 7,9 km/h (2 Bft) SO 135 14,2 C 23,4 C 10,9 km/h (2 Bft)
03.06.2012 16:30 22,3 C 59 % 0,0 l/m 8,7 km/h (2 Bft) S 180 13,9 C 22,5 C 7,6 km/h (2 Bft)
03.06.2012 16:35 22,1 C 61 % 0,0 l/m 7,9 km/h (2 Bft) SO 135 14,2 C 22,6 C 14,2 km/h (3 Bft)
03.06.2012 16:40 21,7 C 61 % 0,0 l/m 7,9 km/h (2 Bft) S 180 13,8 C 22,2 C 11,9 km/h (2 Bft)
03.06.2012 16:45 22,2 C 61 % 0,0 l/m 8,4 km/h (2 Bft) S-SO 157 14,3 C 22,1 C 8,9 km/h (2 Bft)
03.06.2012 16:50 22,2 C 62 % 0,0 l/m 6,9 km/h (2 Bft) S 180 14,6 C 22,8 C 3,7 km/h (1 Bft)
03.06.2012 16:55 22,0 C 62 % 0,0 l/m 5,8 km/h (2 Bft) O-SO 112 14,4 C 22,9 C 6,8 km/h (2 Bft)
03.06.2012 17:00 21,3 C 63 % 0,0 l/m 6,9 km/h (2 Bft) S-SO 157 14,0 C 22,1 C 9,3 km/h (2 Bft)
03.06.2012 17:05 20,9 C 65 % 0,0 l/m 7,2 km/h (2 Bft) S-SW 202 14,1 C 21,6 C 9,3 km/h (2 Bft)
03.06.2012 17:10 20,3 C 66 % 0,0 l/m 6,6 km/h (2 Bft) SO 135 13,7 C 21,0 C 10,1 km/h (2 Bft)
03.06.2012 17:15 20,1 C 67 % 0,0 l/m 7,2 km/h (2 Bft) SO 135 13,8 C 20,4 C 6,8 km/h (2 Bft)
03.06.2012 17:20 19,7 C 69 % 0,0 l/m 7,7 km/h (2 Bft) O-SO 112 13,8 C 19,7 C 8,9 km/h (2 Bft)
03.06.2012 17:25 19,6 C 68 % 0,0 l/m 8,0 km/h (2 Bft) SO 135 13,5 C 19,1 C 7,7 km/h (2 Bft)
03.06.2012 17:30 19,3 C 69 % 0,0 l/m 8,5 km/h (2 Bft) S-SO 157 13,5 C 18,5 C 14,0 km/h (3 Bft)
03.06.2012 17:35 19,2 C 69 % 0,0 l/m 8,7 km/h (2 Bft) O 90 13,4 C 18,2 C 9,3 km/h (2 Bft)
03.06.2012 17:40 18,6 C 70 % 0,0 l/m 10,8 km/h (2 Bft) SO 135 13,0 C 16,8 C 11,1 km/h (2 Bft)
03.06.2012 17:44 18,0 C 71 % 0,0 l/m 10,8 km/h (2 Bft) SO 135 12,7 C 16,1 C 12,9 km/h (3 Bft)
03.06.2012 17:49 17,8 C 73 % 0,0 l/m 10,5 km/h (2 Bft) O-SO 112 12,9 C 16,1 C 9,2 km/h (2 Bft)
03.06.2012 17:54 16,3 C 80 % 0,7 l/m 10,3 km/h (2 Bft) O 90 12,8 C 14,3 C 8,7 km/h (2 Bft)
03.06.2012 17:59 15,5 C 85 % 2,7 l/m 9,5 km/h (2 Bft) O-SO 112 13,0 C 13,8 C 11,3 km/h (2 Bft)
03.06.2012 18:04 15,1 C 87 % 2,1 l/m 11,1 km/h (2 Bft) O-SO 112 13,0 C 11,8 C 11,9 km/h (2 Bft)
03.06.2012 18:09 15,1 C 87 % 0,0 l/m 12,1 km/h (2 Bft) SO 135 13,0 C 11,1 C 19,6 km/h (3 Bft)
03.06.2012 18:14 15,2 C 88 % 0,7 l/m 10,1 km/h (2 Bft) O-SO 112 13,2 C 12,2 C 13,7 km/h (3 Bft)
03.06.2012 18:19 15,0 C 88 % 0,0 l/m 10,8 km/h (2 Bft) O-SO 112 13,0 C 11,9 C 24,9 km/h (4 Bft)
03.06.2012 18:24 15,0 C 89 % 0,7 l/m 10,3 km/h (2 Bft) O-SO 112 13,2 C 12,1 C 11,6 km/h (2 Bft)
03.06.2012 18:29 14,9 C 89 % 0,0 l/m 10,6 km/h (2 Bft) N-NW 337 13,1 C 12,0 C 8,7 km/h (2 Bft)
03.06.2012 18:34 14,7 C 90 % 0,0 l/m 10,8 km/h (2 Bft) O-SO 112 13,1 C 11,6 C 12,9 km/h (3 Bft)
03.06.2012 18:39 14,7 C 90 % 0,7 l/m 9,7 km/h (2 Bft) SO 135 13,1 C 12,3 C 7,9 km/h (2 Bft)
03.06.2012 18:44 14,6 C 90 % 0,0 l/m 8,9 km/h (2 Bft) S 180 13,0 C 12,7 C 9,8 km/h (2 Bft)
03.06.2012 18:49 14,6 C 90 % 0,0 l/m 10,9 km/h (2 Bft) SO 135 13,0 C 11,3 C 15,8 km/h (3 Bft)
03.06.2012 18:54 14,6 C 90 % 0,0 l/m 13,7 km/h (3 Bft) O-SO 112 13,0 C 9,7 C 22,9 km/h (4 Bft)
03.06.2012 18:59 14,6 C 90 % 0,0 l/m 13,4 km/h (3 Bft) SO 135 13,0 C 9,9 C 13,4 km/h (3 Bft)
03.06.2012 19:04 14,6 C 90 % 0,0 l/m 12,6 km/h (3 Bft) S-SO 157 13,0 C 10,6 C 16,7 km/h (3 Bft)
03.06.2012 19:09 14,6 C 90 % 0,0 l/m 12,1 km/h (2 Bft) O-NO 67 13,0 C 11,1 C 11,7 km/h (2 Bft)
03.06.2012 19:14 14,6 C 90 % 0,0 l/m 11,9 km/h (2 Bft) O-SO 112 13,0 C 11,3 C 15,4 km/h (3 Bft)
03.06.2012 19:19 14,6 C 90 % 0,0 l/m 11,4 km/h (2 Bft) S-SO 157 13,0 C 11,5 C 12,6 km/h (3 Bft)
03.06.2012 19:24 14,5 C 90 % 0,0 l/m 11,6 km/h (2 Bft) S-SO 157 12,9 C 11,2 C 16,4 km/h (3 Bft)
03.06.2012 19:29 14,5 C 90 % 0,7 l/m 12,4 km/h (3 Bft) SO 135 12,9 C 10,7 C 15,1 km/h (3 Bft)
03.06.2012 19:34 14,4 C 89 % 0,0 l/m 12,6 km/h (3 Bft) O-SO 112 12,6 C 10,5 C 29,3 km/h (5 Bft)
03.06.2012 19:39 14,4 C 89 % 0,0 l/m 12,4 km/h (3 Bft) S-SO 157 12,6 C 10,6 C 11,1 km/h (2 Bft)
03.06.2012 19:44 14,3 C 89 % 0,0 l/m 14,5 km/h (3 Bft) SO 135 12,5 C 9,6 C 6,9 km/h (2 Bft)
03.06.2012 19:49 14,2 C 89 % 0,0 l/m 14,2 km/h (3 Bft) O-SO 112 12,4 C 9,5 C 24,3 km/h (4 Bft)
03.06.2012 19:54 14,2 C 89 % 0,0 l/m 13,8 km/h (3 Bft) O 90 12,4 C 9,7 C 18,7 km/h (3 Bft)
03.06.2012 19:59 14,1 C 89 % 0,0 l/m 13,7 km/h (3 Bft) NO 45 12,3 C 9,5 C 11,7 km/h (2 Bft)
03.06.2012 20:04 14,0 C 89 % 0,0 l/m 11,3 km/h (2 Bft) O 90 12,2 C 10,5 C 19,2 km/h (3 Bft)
03.06.2012 20:09 13,9 C 89 % 0,0 l/m 10,1 km/h (2 Bft) O-NO 67 12,1 C 11,2 C 11,1 km/h (2 Bft)
03.06.2012 20:14 13,7 C 89 % 0,0 l/m 10,8 km/h (2 Bft) SO 135 11,9 C 10,5 C 11,6 km/h (2 Bft)
03.06.2012 20:19 13,7 C 89 % 0,0 l/m 10,8 km/h (2 Bft) SO 135 11,9 C 10,5 C 11,6 km/h (2 Bft)
03.06.2012 20:20 13,7 C 89 % 0,0 l/m 10,8 km/h (2 Bft) SO 135 11,9 C 10,5 C 11,6 km/h (2 Bft)
03.06.2012 20:25 13,7 C 89 % 0,0 l/m 11,1 km/h (2 Bft) NW 315 11,9 C 10,3 C 16,6 km/h (3 Bft)
03.06.2012 20:30 13,6 C 89 % 0,0 l/m 11,4 km/h (2 Bft) O 90 11,8 C 9,8 C 25,1 km/h (4 Bft)
03.06.2012 20:35 13,5 C 89 % 0,0 l/m 11,4 km/h (2 Bft) O-SO 112 11,7 C 9,8 C 10,3 km/h (2 Bft)
03.06.2012 20:40 13,3 C 89 % 0,0 l/m 12,6 km/h (3 Bft) SO 135 11,5 C 8,7 C 28,6 km/h (4 Bft)
03.06.2012 20:45 13,2 C 89 % 0,0 l/m 11,9 km/h (2 Bft) S 180 11,4 C 9,0 C 14,2 km/h (3 Bft)
03.06.2012 20:50 13,0 C 90 % 0,0 l/m 10,6 km/h (2 Bft) S-SO 157 11,4 C 9,6 C 7,9 km/h (2 Bft)
03.06.2012 20:55 13,0 C 90 % 0,0 l/m 9,7 km/h (2 Bft) S-SO 157 11,4 C 10,1 C 15,1 km/h (3 Bft)
03.06.2012 21:00 13,0 C 90 % 0,0 l/m 8,4 km/h (2 Bft) NO 45 11,4 C 11,0 C 11,3 km/h (2 Bft)
03.06.2012 21:05 12,9 C 92 % 0,7 l/m 9,2 km/h (2 Bft) O-SO 112 11,6 C 10,3 C 15,0 km/h (3 Bft)
03.06.2012 21:10 12,9 C 92 % 0,0 l/m 8,2 km/h (2 Bft) SO 135 11,6 C 11,0 C 8,4 km/h (2 Bft)
03.06.2012 21:15 12,9 C 92 % 0,0 l/m 7,9 km/h (2 Bft) S-SO 157 11,6 C 11,2 C 6,0 km/h (2 Bft)
03.06.2012 21:20 12,8 C 92 % 0,0 l/m 7,1 km/h (2 Bft) O-SO 112 11,5 C 11,8 C 5,6 km/h (1 Bft)
03.06.2012 21:25 12,8 C 92 % 0,0 l/m 4,7 km/h (1 Bft) O-SO 112 11,5 C 12,7 C 5,8 km/h (2 Bft)
03.06.2012 21:30 12,8 C 92 % 0,0 l/m 3,1 km/h (1 Bft) N-NW 337 11,5 C 12,7 C 4,2 km/h (1 Bft)
03.06.2012 21:35 12,8 C 93 % 0,0 l/m 3,9 km/h (1 Bft) SO 135 11,7 C 12,7 C 4,7 km/h (1 Bft)
03.06.2012 21:40 12,7 C 93 % 0,0 l/m 4,8 km/h (1 Bft) S-SO 157 11,6 C 12,7 C 6,0 km/h (2 Bft)
03.06.2012 21:45 12,7 C 93 % 0,0 l/m 4,3 km/h (1 Bft) N 360 11,6 C 12,7 C 2,4 km/h (1 Bft)
03.06.2012 21:50 12,7 C 93 % 0,0 l/m 4,3 km/h (1 Bft) O 90 11,6 C 12,6 C 7,4 km/h (2 Bft)
03.06.2012 21:55 12,7 C 93 % 0,7 l/m 3,9 km/h (1 Bft) SO 135 11,6 C 12,6 C 2,3 km/h (1 Bft)
03.06.2012 22:00 12,6 C 93 % 0,0 l/m 3,5 km/h (1 Bft) O 90 11,5 C 12,5 C 3,1 km/h (1 Bft)
03.06.2012 22:05 12,6 C 93 % 0,0 l/m 4,7 km/h (1 Bft) O-SO 112 11,5 C 12,5 C 7,7 km/h (2 Bft)
03.06.2012 22:10 12,5 C 93 % 0,0 l/m 5,6 km/h (1 Bft) SO 135 11,4 C 12,4 C 9,5 km/h (2 Bft)
03.06.2012 22:15 12,4 C 93 % 0,0 l/m 5,8 km/h (2 Bft) N-NO 22 11,3 C 12,4 C 9,0 km/h (2 Bft)
03.06.2012 22:20 12,3 C 93 % 0,0 l/m 6,3 km/h (2 Bft) O-NO 67 11,2 C 12,0 C 4,2 km/h (1 Bft)
03.06.2012 22:25 12,2 C 92 % 0,0 l/m 6,6 km/h (2 Bft) O-SO 112 10,9 C 11,8 C 11,4 km/h (2 Bft)
03.06.2012 22:30 12,1 C 92 % 0,0 l/m 6,0 km/h (2 Bft) NO 45 10,8 C 11,9 C 3,4 km/h (1 Bft)
03.06.2012 22:35 12,0 C 92 % 0,0 l/m 5,5 km/h (1 Bft) N-NO 22 10,7 C 11,9 C 7,1 km/h (2 Bft)
03.06.2012 22:40 11,9 C 93 % 0,0 l/m 5,3 km/h (1 Bft) W 270 10,8 C 11,7 C 4,7 km/h (1 Bft)
03.06.2012 22:45 11,8 C 93 % 0,0 l/m 4,8 km/h (1 Bft) SO 135 10,7 C 11,7 C 0,0 km/h (0 Bft)
03.06.2012 22:50 11,7 C 93 % 0,7 l/m 4,2 km/h (1 Bft) O 90 10,6 C 11,6 C 9,0 km/h (2 Bft)
03.06.2012 22:55 11,6 C 93 % 0,0 l/m 5,1 km/h (1 Bft) SO 135 10,5 C 11,4 C 5,8 km/h (2 Bft)
03.06.2012 23:00 11,5 C 93 % 0,0 l/m 5,3 km/h (1 Bft) SO 135 10,4 C 11,1 C 7,2 km/h (2 Bft)
03.06.2012 23:05 11,4 C 93 % 0,0 l/m 4,7 km/h (1 Bft) O-SO 112 10,3 C 11,3 C 5,3 km/h (1 Bft)
03.06.2012 23:10 11,4 C 93 % 0,0 l/m 5,1 km/h (1 Bft) O-SO 112 10,3 C 11,2 C 6,3 km/h (2 Bft)
03.06.2012 23:15 11,3 C 93 % 0,0 l/m 5,0 km/h (1 Bft) O 90 10,2 C 11,2 C 2,6 km/h (1 Bft)
03.06.2012 23:20 11,2 C 93 % 0,0 l/m 4,0 km/h (1 Bft) O 90 10,1 C 11,2 C 7,6 km/h (2 Bft)
03.06.2012 23:25 11,3 C 93 % 0,0 l/m 3,4 km/h (1 Bft) NO 45 10,2 C 11,2 C 7,2 km/h (2 Bft)
03.06.2012 23:30 11,2 C 93 % 0,0 l/m 4,3 km/h (1 Bft) N 360 10,1 C 11,2 C 2,6 km/h (1 Bft)
03.06.2012 23:35 11,1 C 93 % 0,7 l/m 4,0 km/h (1 Bft) S 180 10,0 C 11,1 C 3,4 km/h (1 Bft)
03.06.2012 23:40 11,1 C 93 % 0,0 l/m 2,7 km/h (1 Bft) NO 45 10,0 C 11,1 C 3,9 km/h (1 Bft)
03.06.2012 23:45 11,1 C 93 % 0,0 l/m 3,4 km/h (1 Bft) NO 45 10,0 C 11,0 C 5,5 km/h (1 Bft)
03.06.2012 23:50 11,1 C 93 % 0,0 l/m 2,9 km/h (1 Bft) O-SO 112 10,0 C 11,1 C 2,4 km/h (1 Bft)
03.06.2012 23:55 11,1 C 93 % 0,0 l/m 2,1 km/h (1 Bft) SW 225 10,0 C 11,1 C 0,0 km/h (0 Bft)
_ Min-Zeit 04:45 14:35 - 08:50 - - 04:30 20:40 23:55
Minimum _ 9,5 C 48 % - 0,0 km/h (0 Bft) - - 8,0 C 8,7 C 0,0 km/h (0 Bft)
_ Max-Zeit 14:30 23:55 17:59 10:15 - - 12:26 13:25 10:10
Maximum _ 26,5 C 93 % 2,7 l/m 15,1 km/h
SO (3 Bft)
- - 16,6 C 27,7 C 32,0 km/h
SO (5 Bft)
Durchschnitt _ 15,7 C 80 % #11,0 l/m 4,3 km/h (1 Bft) SO - 12,0 C 15,4 C 5,5 km/h (1 Bft)